Time;durP1;ratioP1;P1;durP2;ratioP2;P2;SDS_P1;SDS_P2;PMS_P1;PMS_P2;Temp;Humidity;BMP_temperature;BMP_pressure;BME280_temperature;BME280_humidity;BME280_pressure;Samples;Min_cycle;Max_cycle;Signal;HPM_P1;HPM_P2
2022/09/18 00:01:40;;;;;;;11.03;4.77;;;;;;;;;;5030320;28;20218;-81
2022/09/18 00:04:08;;;;;;;8.57;4.67;;;;;;;;;;5033644;28;20721;-83
2022/09/18 00:06:37;;;;;;;14.60;4.80;;;;;;;;;;5032296;28;20535;-83
2022/09/18 00:09:07;;;;;;;11.97;4.70;;;;;;;;;;5028417;28;20223;-84
2022/09/18 00:11:36;;;;;;;11.53;4.37;;;;;;;;;;5032014;28;20206;-81
2022/09/18 00:14:04;;;;;;;10.80;4.27;;;;;;;;;;5026919;28;20570;-79
2022/09/18 00:16:32;;;;;;;12.20;3.87;;;;;;;;;;5031233;28;20311;-80
2022/09/18 00:18:59;;;;;;;13.43;4.03;;;;;;;;;;5035295;28;20215;-81
2022/09/18 00:21:28;;;;;;;15.90;4.10;;;;;;;;;;5029184;28;20366;-81
2022/09/18 00:23:56;;;;;;;12.53;4.00;;;;;;;;;;5031261;28;20253;-81
2022/09/18 00:26:25;;;;;;;10.03;3.90;;;;;;;;;;5028129;28;20216;-81
2022/09/18 00:28:53;;;;;;;14.27;3.57;;;;;;;;;;5030389;28;20618;-83
2022/09/18 00:31:24;;;;;;;12.23;3.20;;;;;;;;;;5034108;28;20247;-81
2022/09/18 00:33:51;;;;;;;9.87;3.60;;;;;;;;;;5030453;28;20218;-82
2022/09/18 00:36:19;;;;;;;10.73;3.73;;;;;;;;;;5027799;28;20203;-83
2022/09/18 00:38:46;;;;;;;11.80;3.40;;;;;;;;;;5026946;28;20693;-82
2022/09/18 00:41:15;;;;;;;14.83;3.40;;;;;;;;;;4990624;28;1089706;-82
2022/09/18 00:43:42;;;;;;;11.53;3.00;;;;;;;;;;5031950;28;20203;-81
2022/09/18 00:46:19;;;;;;;10.20;3.43;;;;;;;;;;5030438;28;20234;-82
2022/09/18 00:48:48;;;;;;;6.70;3.00;;;;;;;;;;5030026;28;20227;-83
2022/09/18 00:51:16;;;;;;;7.73;3.10;;;;;;;;;;5029585;28;20607;-82
2022/09/18 00:53:46;;;;;;;6.43;2.77;;;;;;;;;;5032627;28;20204;-81
2022/09/18 00:56:15;;;;;;;9.50;3.30;;;;;;;;;;5025056;28;20287;-83
2022/09/18 00:58:43;;;;;;;8.40;3.03;;;;;;;;;;5032881;28;20207;-83
2022/09/18 01:01:11;;;;;;;10.50;3.50;;;;;;;;;;5030529;28;20234;-82
2022/09/18 01:03:41;;;;;;;8.63;2.87;;;;;;;;;;5029846;28;20703;-82
2022/09/18 01:06:11;;;;;;;10.80;3.10;;;;;;;;;;5028954;28;20203;-82
2022/09/18 01:08:43;;;;;;;11.07;3.93;;;;;;;;;;5031675;28;20318;-84
2022/09/18 01:11:14;;;;;;;11.00;3.27;;;;;;;;;;5029259;28;20247;-83
2022/09/18 01:13:45;;;;;;;12.07;2.83;;;;;;;;;;5026237;28;20286;-82
2022/09/18 01:16:17;;;;;;;9.53;2.70;;;;;;;;;;5029209;28;20298;-82
2022/09/18 01:18:52;;;;;;;13.00;3.07;;;;;;;;;;5035657;28;20196;-81
2022/09/18 01:21:21;;;;;;;7.07;3.10;;;;;;;;;;5026836;28;20226;-83
2022/09/18 01:24:10;;;;;;;9.27;3.00;;;;;;;;;;5027639;28;20705;-81
2022/09/18 01:26:52;;;;;;;7.47;3.30;;;;;;;;;;5029171;28;20203;-82
2022/09/18 01:29:24;;;;;;;7.63;3.37;;;;;;;;;;5028576;28;20239;-82
2022/09/18 01:31:53;;;;;;;10.00;3.33;;;;;;;;;;5026411;28;20214;-82
2022/09/18 01:34:24;;;;;;;6.67;2.97;;;;;;;;;;5029763;28;21058;-80
2022/09/18 01:36:53;;;;;;;11.57;3.40;;;;;;;;;;5029191;28;20206;-82
2022/09/18 01:39:23;;;;;;;12.37;3.23;;;;;;;;;;5029276;28;20211;-81
2022/09/18 01:41:51;;;;;;;8.70;3.40;;;;;;;;;;5030348;28;20210;-81
2022/09/18 01:44:21;;;;;;;8.53;3.20;;;;;;;;;;5026437;28;20242;-80
2022/09/18 01:46:50;;;;;;;5.23;3.00;;;;;;;;;;5028079;28;20214;-79
2022/09/18 01:49:19;;;;;;;6.43;2.83;;;;;;;;;;5029638;28;20231;-84
2022/09/18 01:51:49;;;;;;;7.43;2.67;;;;;;;;;;5029251;28;20294;-80
2022/09/18 01:54:20;;;;;;;9.77;3.13;;;;;;;;;;5029936;28;20207;-81
2022/09/18 01:56:48;;;;;;;4.30;2.90;;;;;;;;;;5031373;28;20311;-84
2022/09/18 01:59:18;;;;;;;5.80;3.10;;;;;;;;;;5028748;28;20207;-81
2022/09/18 02:01:46;;;;;;;10.07;2.80;;;;;;;;;;5025792;28;20670;-84
2022/09/18 02:04:17;;;;;;;8.40;2.90;;;;;;;;;;5025971;28;20210;-81
2022/09/18 02:06:48;;;;;;;6.03;2.50;;;;;;;;;;5029322;28;20199;-81
2022/09/18 02:09:16;;;;;;;8.07;3.10;;;;;;;;;;5025995;28;20323;-83
2022/09/18 02:11:45;;;;;;;5.77;2.83;;;;;;;;;;5028521;28;20192;-79
2022/09/18 02:14:14;;;;;;;10.37;2.53;;;;;;;;;;5026109;28;20210;-81
2022/09/18 02:16:45;;;;;;;5.83;2.77;;;;;;;;;;5028609;28;20262;-80
2022/09/18 02:19:17;;;;;;;4.60;2.87;;;;;;;;;;5027609;28;20212;-81
2022/09/18 02:21:46;;;;;;;9.47;2.93;;;;;;;;;;5027651;28;20287;-80
2022/09/18 02:24:16;;;;;;;7.70;3.30;;;;;;;;;;5030124;28;20206;-81
2022/09/18 02:26:44;;;;;;;9.00;3.23;;;;;;;;;;5029267;28;20247;-82
2022/09/18 02:29:12;;;;;;;6.60;3.50;;;;;;;;;;5029391;28;20715;-80
2022/09/18 02:31:40;;;;;;;8.50;2.90;;;;;;;;;;5027812;28;20206;-80
2022/09/18 02:34:08;;;;;;;8.00;3.30;;;;;;;;;;5028883;28;20283;-81
2022/09/18 02:36:43;;;;;;;9.37;3.60;;;;;;;;;;5032470;28;20208;-81
2022/09/18 02:39:18;;;;;;;5.63;3.40;;;;;;;;;;5025436;28;20708;-82
2022/09/18 02:41:49;;;;;;;7.33;3.17;;;;;;;;;;5025358;28;20629;-81
2022/09/18 02:44:19;;;;;;;5.10;3.10;;;;;;;;;;5026088;28;20203;-82
2022/09/18 02:46:52;;;;;;;8.57;3.20;;;;;;;;;;5033305;28;20204;-80
2022/09/18 02:49:24;;;;;;;9.13;3.57;;;;;;;;;;5029598;28;20220;-82
2022/09/18 02:51:53;;;;;;;7.53;3.30;;;;;;;;;;5035925;28;20237;-82
2022/09/18 02:54:26;;;;;;;7.90;3.07;;;;;;;;;;5029581;28;20566;-82
2022/09/18 02:56:56;;;;;;;7.50;3.03;;;;;;;;;;5031197;28;20294;-82
2022/09/18 02:59:26;;;;;;;8.00;3.33;;;;;;;;;;5033146;28;20299;-82
2022/09/18 03:01:53;;;;;;;7.47;3.10;;;;;;;;;;5032404;28;20220;-82
2022/09/18 03:04:22;;;;;;;5.77;2.80;;;;;;;;;;5028425;28;20573;-82
2022/09/18 03:06:49;;;;;;;4.23;2.90;;;;;;;;;;5031885;28;20211;-81
2022/09/18 03:09:17;;;;;;;3.73;2.53;;;;;;;;;;5030647;28;20345;-82
2022/09/18 03:11:48;;;;;;;6.40;2.73;;;;;;;;;;5031920;28;20211;-82
2022/09/18 03:14:15;;;;;;;5.37;2.47;;;;;;;;;;5026962;28;20207;-82
2022/09/18 03:16:43;;;;;;;3.83;2.37;;;;;;;;;;5031855;28;20215;-83
2022/09/18 03:19:10;;;;;;;9.50;3.43;;;;;;;;;;5031544;28;20859;-81
2022/09/18 03:21:37;;;;;;;4.17;2.70;;;;;;;;;;5032491;28;20286;-82
2022/09/18 03:24:05;;;;;;;7.20;3.40;;;;;;;;;;5031463;28;20583;-81
2022/09/18 03:26:32;;;;;;;5.83;3.10;;;;;;;;;;5030551;28;20812;-82
2022/09/18 03:29:01;;;;;;;6.90;3.20;;;;;;;;;;5033686;28;20233;-82
2022/09/18 03:31:28;;;;;;;8.67;3.67;;;;;;;;;;5028867;28;20234;-81
2022/09/18 03:33:57;;;;;;;7.73;3.97;;;;;;;;;;5032278;28;20552;-83
2022/09/18 03:36:24;;;;;;;10.77;4.03;;;;;;;;;;5032867;28;20570;-84
2022/09/18 03:38:51;;;;;;;6.13;3.90;;;;;;;;;;5034092;28;20290;-81
2022/09/18 03:41:19;;;;;;;10.23;4.30;;;;;;;;;;5034499;28;20231;-84
2022/09/18 03:43:46;;;;;;;7.27;3.80;;;;;;;;;;5031910;28;20210;-83
2022/09/18 03:46:21;;;;;;;6.57;3.83;;;;;;;;;;5032623;28;20295;-80
2022/09/18 03:48:48;;;;;;;9.70;3.80;;;;;;;;;;5033663;28;20342;-83
2022/09/18 03:51:15;;;;;;;4.70;3.30;;;;;;;;;;5033993;28;20224;-82
2022/09/18 03:53:42;;;;;;;6.97;3.80;;;;;;;;;;5030476;28;20208;-84
2022/09/18 03:56:09;;;;;;;6.00;3.73;;;;;;;;;;5030721;28;20214;-80
2022/09/18 03:58:36;;;;;;;5.87;3.07;;;;;;;;;;5031596;28;20203;-82
2022/09/18 04:01:05;;;;;;;5.77;3.33;;;;;;;;;;5031802;28;20228;-81
2022/09/18 04:03:34;;;;;;;4.40;2.90;;;;;;;;;;5027193;28;20258;-81
2022/09/18 04:06:01;;;;;;;6.33;3.10;;;;;;;;;;5031583;28;20230;-80
2022/09/18 04:08:29;;;;;;;8.67;2.93;;;;;;;;;;5032061;28;20204;-80
2022/09/18 04:10:56;;;;;;;4.80;2.97;;;;;;;;;;5031372;28;20247;-82
2022/09/18 04:13:23;;;;;;;7.33;3.27;;;;;;;;;;5030416;28;20208;-81
2022/09/18 04:15:51;;;;;;;6.30;3.30;;;;;;;;;;5031933;28;20211;-81
2022/09/18 04:18:18;;;;;;;8.43;4.10;;;;;;;;;;5031867;28;20781;-81
2022/09/18 04:20:47;;;;;;;9.03;3.60;;;;;;;;;;5032341;28;20224;-80
2022/09/18 04:23:14;;;;;;;7.73;3.63;;;;;;;;;;5027222;28;20242;-83
2022/09/18 04:25:41;;;;;;;5.97;3.30;;;;;;;;;;5029946;28;20286;-84
2022/09/18 04:28:09;;;;;;;5.60;3.30;;;;;;;;;;5029440;28;20203;-82
2022/09/18 04:30:36;;;;;;;8.47;3.77;;;;;;;;;;5030152;28;20249;-84
2022/09/18 04:33:03;;;;;;;10.13;3.80;;;;;;;;;;5030612;28;20243;-84
2022/09/18 04:35:30;;;;;;;7.60;3.80;;;;;;;;;;5029813;28;20211;-81
2022/09/18 04:37:59;;;;;;;7.17;3.10;;;;;;;;;;5029021;28;20196;-85
2022/09/18 04:40:26;;;;;;;4.43;3.23;;;;;;;;;;5026757;28;20235;-84
2022/09/18 04:42:53;;;;;;;9.17;3.20;;;;;;;;;;5031853;28;20200;-83
2022/09/18 04:45:20;;;;;;;4.47;3.30;;;;;;;;;;5031572;28;20282;-84
2022/09/18 04:47:48;;;;;;;9.87;3.20;;;;;;;;;;5032366;28;20672;-82
2022/09/18 04:50:15;;;;;;;5.50;3.20;;;;;;;;;;5032649;28;20233;-82
2022/09/18 04:52:42;;;;;;;8.80;3.70;;;;;;;;;;5028674;28;20207;-81
2022/09/18 04:55:11;;;;;;;6.33;3.20;;;;;;;;;;5031206;28;20234;-82
2022/09/18 04:57:38;;;;;;;8.90;3.53;;;;;;;;;;5028180;28;20583;-81
2022/09/18 05:00:06;;;;;;;6.73;3.33;;;;;;;;;;5028740;28;20230;-82
2022/09/18 05:02:33;;;;;;;8.60;3.67;;;;;;;;;;5030496;28;20313;-82
2022/09/18 05:05:01;;;;;;;5.53;3.47;;;;;;;;;;5029545;28;20211;-79
2022/09/18 05:07:28;;;;;;;9.33;4.50;;;;;;;;;;5026782;28;20216;-81
2022/09/18 05:09:55;;;;;;;7.93;3.77;;;;;;;;;;5027446;28;20581;-80
2022/09/18 05:12:24;;;;;;;6.93;3.60;;;;;;;;;;5029958;28;20199;-80
2022/09/18 05:14:51;;;;;;;10.07;3.30;;;;;;;;;;5030830;28;20230;-79
2022/09/18 05:17:18;;;;;;;6.13;3.37;;;;;;;;;;5031462;28;20238;-79
2022/09/18 05:19:46;;;;;;;5.23;3.43;;;;;;;;;;5032018;28;20242;-82
2022/09/18 05:22:13;;;;;;;7.40;3.20;;;;;;;;;;5030422;28;20295;-81
2022/09/18 05:24:40;;;;;;;8.87;3.73;;;;;;;;;;5030911;28;20215;-80
2022/09/18 05:27:08;;;;;;;7.00;3.30;;;;;;;;;;5032340;28;20210;-79
2022/09/18 05:29:37;;;;;;;8.90;3.57;;;;;;;;;;5031738;28;20645;-81
2022/09/18 05:32:04;;;;;;;8.37;3.73;;;;;;;;;;5028892;28;20204;-81
2022/09/18 05:34:31;;;;;;;7.27;3.33;;;;;;;;;;5030372;28;20275;-80
2022/09/18 05:36:59;;;;;;;6.10;3.20;;;;;;;;;;5032131;28;20258;-80
2022/09/18 05:39:26;;;;;;;4.63;2.87;;;;;;;;;;5030933;28;21144;-80
2022/09/18 05:41:53;;;;;;;4.60;2.73;;;;;;;;;;5030825;28;20204;-82
2022/09/18 05:44:20;;;;;;;6.03;3.20;;;;;;;;;;5028294;28;20200;-80
2022/09/18 05:46:49;;;;;;;7.40;2.97;;;;;;;;;;5031073;28;20275;-82
2022/09/18 05:49:16;;;;;;;7.13;3.13;;;;;;;;;;5029259;28;20227;-80
2022/09/18 05:51:45;;;;;;;7.27;3.20;;;;;;;;;;5039900;23;20295;-75
2022/09/18 05:54:13;;;;;;;8.27;3.30;;;;;;;;;;5018187;28;20318;-75
2022/09/18 05:56:40;;;;;;;7.07;2.70;;;;;;;;;;5022782;28;20211;-73
2022/09/18 05:59:07;;;;;;;4.67;2.77;;;;;;;;;;5018342;28;20231;-72
2022/09/18 06:01:34;;;;;;;3.30;2.30;;;;;;;;;;5022598;28;20199;-72
2022/09/18 06:04:03;;;;;;;5.13;2.70;;;;;;;;;;5018747;28;20215;-73
2022/09/18 06:06:30;;;;;;;10.57;3.50;;;;;;;;;;5021061;28;20591;-73
2022/09/18 06:08:57;;;;;;;4.77;2.67;;;;;;;;;;5017269;28;20238;-72
2022/09/18 06:11:24;;;;;;;4.97;2.70;;;;;;;;;;5022748;28;20207;-73
2022/09/18 06:13:52;;;;;;;6.07;2.60;;;;;;;;;;5016917;28;20299;-73
2022/09/18 06:16:19;;;;;;;3.73;2.03;;;;;;;;;;5021049;28;20208;-73
2022/09/18 06:18:46;;;;;;;4.00;1.90;;;;;;;;;;5019453;28;20227;-73
2022/09/18 06:21:14;;;;;;;3.23;1.50;;;;;;;;;;5017397;28;20196;-73
2022/09/18 06:23:42;;;;;;;4.30;2.10;;;;;;;;;;5023111;28;20653;-74
2022/09/18 06:26:11;;;;;;;4.27;1.90;;;;;;;;;;5022653;28;20212;-74
2022/09/18 06:28:38;;;;;;;4.03;1.93;;;;;;;;;;5019886;28;20230;-73
2022/09/18 06:31:06;;;;;;;1.90;1.53;;;;;;;;;;5021211;28;20234;-74
2022/09/18 06:33:35;;;;;;;5.63;2.30;;;;;;;;;;5019699;28;20208;-74
2022/09/18 06:36:05;;;;;;;2.60;1.70;;;;;;;;;;5019483;28;20207;-74
2022/09/18 06:38:33;;;;;;;3.13;1.77;;;;;;;;;;5025099;28;20311;-73
2022/09/18 06:41:01;;;;;;;4.53;1.90;;;;;;;;;;5019061;28;20582;-74
2022/09/18 06:43:28;;;;;;;4.10;1.90;;;;;;;;;;5017293;28;20238;-73
2022/09/18 06:45:56;;;;;;;2.67;1.50;;;;;;;;;;5020226;28;20238;-74
2022/09/18 06:48:23;;;;;;;3.03;1.40;;;;;;;;;;5016864;28;20580;-74
2022/09/18 06:50:54;;;;;;;7.97;1.70;;;;;;;;;;5017892;28;20689;-74
2022/09/18 06:53:21;;;;;;;4.23;1.70;;;;;;;;;;5016486;28;20214;-74
2022/09/18 06:55:50;;;;;;;3.40;1.57;;;;;;;;;;5018958;28;20207;-74
2022/09/18 06:58:17;;;;;;;3.60;1.50;;;;;;;;;;5015756;28;20227;-74
2022/09/18 07:00:45;;;;;;;5.87;1.50;;;;;;;;;;5014049;28;20196;-74
2022/09/18 07:03:12;;;;;;;2.47;1.33;;;;;;;;;;5018198;28;20208;-74
2022/09/18 07:05:41;;;;;;;3.53;1.50;;;;;;;;;;5018411;28;20204;-75
2022/09/18 07:08:09;;;;;;;3.10;1.50;;;;;;;;;;5016605;28;20216;-74
2022/09/18 07:10:36;;;;;;;3.80;1.30;;;;;;;;;;5016269;28;20223;-74
2022/09/18 07:13:05;;;;;;;4.87;1.20;;;;;;;;;;5017328;28;20215;-73
2022/09/18 07:15:32;;;;;;;2.27;1.40;;;;;;;;;;5016838;28;20200;-74
2022/09/18 07:18:00;;;;;;;3.17;1.50;;;;;;;;;;5017530;28;20230;-72
2022/09/18 07:20:29;;;;;;;4.00;1.20;;;;;;;;;;5018902;28;20227;-73
2022/09/18 07:22:57;;;;;;;2.83;1.20;;;;;;;;;;5018304;28;20203;-74
2022/09/18 07:25:25;;;;;;;1.97;1.37;;;;;;;;;;5016541;28;20206;-74
2022/09/18 07:27:52;;;;;;;1.70;1.23;;;;;;;;;;5014265;28;20226;-74
2022/09/18 07:30:21;;;;;;;3.10;1.30;;;;;;;;;;5020351;28;20326;-74
2022/09/18 07:32:48;;;;;;;6.67;1.40;;;;;;;;;;5016683;28;20208;-75
2022/09/18 07:35:15;;;;;;;3.80;1.27;;;;;;;;;;5020634;28;20208;-75
2022/09/18 07:37:43;;;;;;;2.93;1.33;;;;;;;;;;5022790;28;20234;-74
2022/09/18 07:40:11;;;;;;;5.43;1.47;;;;;;;;;;5022967;28;20403;-74
2022/09/18 07:42:38;;;;;;;4.50;1.37;;;;;;;;;;5022963;28;20210;-74
2022/09/18 07:45:06;;;;;;;3.43;1.23;;;;;;;;;;5015780;28;20237;-75
2022/09/18 07:47:35;;;;;;;3.90;1.50;;;;;;;;;;5018871;28;20301;-75
2022/09/18 07:50:02;;;;;;;6.70;1.60;;;;;;;;;;5020035;28;20219;-73
2022/09/18 07:52:29;;;;;;;3.73;1.87;;;;;;;;;;5021595;28;20208;-75
2022/09/18 07:54:56;;;;;;;2.73;1.63;;;;;;;;;;5020702;28;20290;-75
2022/09/18 07:57:23;;;;;;;1.90;1.23;;;;;;;;;;5017386;28;20231;-74
2022/09/18 07:59:50;;;;;;;8.07;1.70;;;;;;;;;;5020268;28;20316;-74
2022/09/18 08:02:18;;;;;;;4.53;1.63;;;;;;;;;;5021282;28;20202;-74
2022/09/18 08:04:46;;;;;;;2.53;1.40;;;;;;;;;;5018412;28;20206;-73
2022/09/18 08:07:13;;;;;;;3.17;1.50;;;;;;;;;;5021289;28;20227;-74
2022/09/18 08:09:40;;;;;;;4.67;1.20;;;;;;;;;;5021127;28;20200;-75
2022/09/18 08:12:08;;;;;;;3.07;1.33;;;;;;;;;;5017757;28;20688;-74
2022/09/18 08:14:35;;;;;;;2.57;1.33;;;;;;;;;;5020689;28;20203;-74
2022/09/18 08:17:04;;;;;;;2.17;1.10;;;;;;;;;;5018715;28;20223;-74
2022/09/18 08:19:31;;;;;;;1.67;1.10;;;;;;;;;;5022751;28;20200;-75
2022/09/18 08:22:00;;;;;;;1.87;0.93;;;;;;;;;;5020187;28;20206;-74
2022/09/18 08:24:27;;;;;;;1.73;1.00;;;;;;;;;;5017752;28;20678;-74
2022/09/18 08:27:01;;;;;;;1.20;0.90;;;;;;;;;;5017557;28;20212;-73
2022/09/18 08:29:29;;;;;;;2.03;1.03;;;;;;;;;;5032139;23;20236;-81
2022/09/18 08:31:56;;;;;;;1.53;0.80;;;;;;;;;;5029066;28;20235;-82
2022/09/18 08:34:23;;;;;;;3.27;0.83;;;;;;;;;;5024902;28;20218;-81
2022/09/18 08:36:50;;;;;;;3.97;0.87;;;;;;;;;;5027622;28;20200;-82
2022/09/18 08:39:19;;;;;;;1.73;0.80;;;;;;;;;;5022867;28;20196;-82
2022/09/18 08:41:56;;;;;;;1.63;0.93;;;;;;;;;;5024763;28;20200;-81
2022/09/18 08:44:24;;;;;;;1.60;1.00;;;;;;;;;;5024830;28;20663;-82
2022/09/18 08:46:54;;;;;;;2.07;1.13;;;;;;;;;;5019083;28;20205;-82
2022/09/18 08:49:23;;;;;;;2.30;1.03;;;;;;;;;;5025801;28;20307;-82
2022/09/18 08:51:53;;;;;;;2.23;1.30;;;;;;;;;;5028190;28;20274;-80
2022/09/18 08:54:26;;;;;;;2.53;1.30;;;;;;;;;;5023099;28;20282;-80
2022/09/18 08:56:56;;;;;;;3.00;1.37;;;;;;;;;;5041626;28;20207;-82
2022/09/18 08:59:29;;;;;;;2.50;1.40;;;;;;;;;;5038315;28;20222;-82
2022/09/18 09:02:04;;;;;;;6.30;1.63;;;;;;;;;;5039190;28;20255;-83
2022/09/18 09:04:31;;;;;;;3.73;1.30;;;;;;;;;;5036254;28;20208;-83
2022/09/18 09:07:04;;;;;;;2.27;1.40;;;;;;;;;;5041871;28;20215;-84
2022/09/18 09:09:43;;;;;;;2.07;1.50;;;;;;;;;;5041047;28;20200;-82
2022/09/18 09:12:14;;;;;;;2.27;1.50;;;;;;;;;;5041585;28;20247;-81
2022/09/18 09:14:47;;;;;;;1.70;1.60;;;;;;;;;;5034525;28;20188;-81
2022/09/18 09:17:17;;;;;;;3.40;1.47;;;;;;;;;;5031973;28;20253;-81
2022/09/18 09:19:49;;;;;;;3.70;1.40;;;;;;;;;;5034816;28;20211;-80
2022/09/18 09:22:18;;;;;;;5.43;1.70;;;;;;;;;;5024537;28;20224;-82
2022/09/18 09:24:54;;;;;;;2.67;1.47;;;;;;;;;;5028177;28;20199;-82
2022/09/18 09:27:23;;;;;;;2.47;1.63;;;;;;;;;;5031127;28;20209;-82
2022/09/18 09:30:00;;;;;;;2.77;1.63;;;;;;;;;;5027837;28;20215;-82
2022/09/18 09:32:30;;;;;;;4.13;1.17;;;;;;;;;;5022671;28;20215;-81
2022/09/18 09:34:59;;;;;;;1.27;1.17;;;;;;;;;;5024419;28;20195;-81
2022/09/18 09:37:31;;;;;;;3.77;1.67;;;;;;;;;;5023003;28;20195;-81
2022/09/18 09:40:03;;;;;;;2.97;1.37;;;;;;;;;;5025227;28;20210;-82
2022/09/18 09:45:39;;;;;;;3.27;1.50;;;;;;;;;;5025843;28;20293;-82
2022/09/18 09:48:12;;;;;;;2.13;1.37;;;;;;;;;;5026672;28;20211;-82
2022/09/18 09:50:43;;;;;;;1.43;0.83;;;;;;;;;;5026144;28;20711;-82
2022/09/18 09:53:13;;;;;;;1.93;0.90;;;;;;;;;;5024345;28;20223;-82
2022/09/18 09:55:47;;;;;;;1.07;0.83;;;;;;;;;;5024777;28;20207;-82
2022/09/18 09:58:19;;;;;;;1.10;0.80;;;;;;;;;;5026349;28;20268;-83
2022/09/18 10:00:51;;;;;;;1.40;1.00;;;;;;;;;;5024384;28;20307;-82
2022/09/18 10:03:34;;;;;;;1.53;1.23;;;;;;;;;;5027636;28;20310;-82
2022/09/18 10:06:07;;;;;;;2.27;1.20;;;;;;;;;;5024194;28;20199;-83
2022/09/18 10:08:36;;;;;;;2.83;1.20;;;;;;;;;;5026058;28;20196;-83
2022/09/18 10:11:07;;;;;;;2.53;1.30;;;;;;;;;;5027209;28;20258;-84
2022/09/18 10:13:36;;;;;;;1.33;1.10;;;;;;;;;;5027341;28;20215;-82
2022/09/18 10:16:07;;;;;;;2.20;1.27;;;;;;;;;;5031128;28;20200;-82
2022/09/18 10:18:35;;;;;;;5.23;1.27;;;;;;;;;;5046801;28;20207;-82
2022/09/18 10:21:06;;;;;;;2.80;1.33;;;;;;;;;;5042264;28;20187;-83
2022/09/18 10:23:37;;;;;;;4.30;1.80;;;;;;;;;;5027531;28;20219;-82
2022/09/18 10:26:06;;;;;;;3.00;1.43;;;;;;;;;;5026388;28;20235;-82
2022/09/18 10:28:33;;;;;;;8.87;1.50;;;;;;;;;;5024767;28;20196;-81
2022/09/18 10:31:02;;;;;;;3.67;2.30;;;;;;;;;;5028790;28;20247;-83
2022/09/18 10:33:34;;;;;;;3.13;1.87;;;;;;;;;;5032752;28;20900;-82
2022/09/18 10:36:03;;;;;;;4.07;1.63;;;;;;;;;;5028439;28;20273;-82
2022/09/18 10:38:33;;;;;;;1.97;1.50;;;;;;;;;;5027082;28;20203;-82
2022/09/18 10:41:17;;;;;;;5.20;2.30;;;;;;;;;;5022822;28;20200;-82
2022/09/18 10:43:53;;;;;;;3.33;1.80;;;;;;;;;;5019352;28;20282;-82
2022/09/18 10:46:23;;;;;;;3.43;1.33;;;;;;;;;;5022644;28;20204;-82
2022/09/18 10:48:51;;;;;;;3.97;1.60;;;;;;;;;;5021986;28;20199;-83
2022/09/18 10:51:20;;;;;;;3.20;1.80;;;;;;;;;;5019395;28;20219;-82
2022/09/18 10:54:00;;;;;;;3.20;1.50;;;;;;;;;;5022784;28;20383;-82
2022/09/18 10:56:28;;;;;;;2.70;1.40;;;;;;;;;;5026385;28;20655;-83
2022/09/18 10:58:56;;;;;;;2.77;1.13;;;;;;;;;;5020559;28;20291;-83
2022/09/18 11:01:24;;;;;;;2.27;1.23;;;;;;;;;;5026866;28;20200;-83
2022/09/18 11:04:00;;;;;;;1.70;1.10;;;;;;;;;;5025151;28;20243;-83
2022/09/18 11:06:28;;;;;;;2.07;1.00;;;;;;;;;;5020581;28;20234;-83
2022/09/18 11:08:56;;;;;;;1.47;1.10;;;;;;;;;;5029804;28;20227;-83
2022/09/18 11:11:27;;;;;;;2.63;1.13;;;;;;;;;;5030357;28;20218;-82
2022/09/18 11:13:57;;;;;;;3.53;1.27;;;;;;;;;;5033723;28;20222;-83
2022/09/18 11:16:26;;;;;;;1.90;1.03;;;;;;;;;;5027185;28;20293;-82
2022/09/18 11:19:03;;;;;;;4.20;1.37;;;;;;;;;;5032525;28;20282;-82
2022/09/18 11:21:31;;;;;;;2.03;1.17;;;;;;;;;;5028388;28;20257;-83
2022/09/18 11:24:05;;;;;;;1.60;1.20;;;;;;;;;;5026103;28;20215;-83
2022/09/18 11:26:32;;;;;;;7.80;1.50;;;;;;;;;;5034078;28;20291;-82
2022/09/18 11:29:02;;;;;;;1.20;1.10;;;;;;;;;;5030911;28;20207;-82
2022/09/18 11:31:39;;;;;;;1.37;1.00;;;;;;;;;;5030535;28;20428;-82
2022/09/18 11:34:12;;;;;;;3.50;1.10;;;;;;;;;;5031835;28;20281;-82
2022/09/18 11:36:39;;;;;;;2.00;1.20;;;;;;;;;;5030659;28;20220;-82
2022/09/18 11:39:13;;;;;;;10.13;1.30;;;;;;;;;;5036871;28;20275;-82
2022/09/18 11:41:41;;;;;;;1.33;1.23;;;;;;;;;;5032673;28;20659;-81
2022/09/18 11:44:15;;;;;;;2.40;1.40;;;;;;;;;;5030441;28;20199;-82
2022/09/18 11:46:47;;;;;;;2.53;1.37;;;;;;;;;;5032229;28;20555;-81
2022/09/18 11:49:16;;;;;;;7.57;1.77;;;;;;;;;;5026223;28;20239;-82
2022/09/18 11:54:16;;;;;;;2.10;1.10;;;;;;;;;;5048061;28;20274;-83
2022/09/18 11:56:46;;;;;;;5.97;1.37;;;;;;;;;;5052147;28;20199;-84
2022/09/18 11:59:21;;;;;;;1.47;0.83;;;;;;;;;;5054362;28;20275;-83
2022/09/18 12:01:51;;;;;;;1.63;1.23;;;;;;;;;;5054661;28;20673;-82
2022/09/18 12:04:22;;;;;;;1.67;1.20;;;;;;;;;;5050077;28;20195;-82
2022/09/18 12:06:54;;;;;;;1.73;1.20;;;;;;;;;;5052165;28;20207;-82
2022/09/18 12:09:26;;;;;;;3.93;1.20;;;;;;;;;;5049565;28;20232;-78
2022/09/18 12:11:56;;;;;;;2.37;1.33;;;;;;;;;;5070759;28;20238;-78
2022/09/18 12:14:29;;;;;;;2.63;1.80;;;;;;;;;;5068352;28;20401;-79
2022/09/18 12:16:59;;;;;;;2.40;1.57;;;;;;;;;;5065647;28;20210;-83
2022/09/18 12:19:28;;;;;;;3.10;1.50;;;;;;;;;;5051721;28;20203;-85
2022/09/18 12:21:58;;;;;;;6.10;1.90;;;;;;;;;;5053215;28;20651;-84
2022/09/18 12:24:25;;;;;;;1.60;1.20;;;;;;;;;;5049369;28;20285;-83
2022/09/18 12:26:59;;;;;;;5.27;1.23;;;;;;;;;;5046474;28;20377;-83
2022/09/18 12:29:35;;;;;;;2.90;1.47;;;;;;;;;;5053587;28;20205;-85
2022/09/18 12:32:07;;;;;;;6.23;2.00;;;;;;;;;;5050551;28;20226;-85
2022/09/18 12:34:39;;;;;;;2.73;1.40;;;;;;;;;;5046666;28;20258;-80
2022/09/18 12:37:10;;;;;;;4.30;1.10;;;;;;;;;;5051792;28;20203;-85
2022/09/18 12:39:51;;;;;;;4.83;0.90;;;;;;;;;;5049986;28;20714;-83
2022/09/18 12:42:22;;;;;;;2.20;1.10;;;;;;;;;;5047685;28;20226;-83
2022/09/18 12:45:22;;;;;;;3.83;1.07;;;;;;;;;;5049113;28;20419;-83
2022/09/18 12:48:05;;;;;;;2.67;1.00;;;;;;;;;;4966430;28;20260;-83
2022/09/18 12:50:42;;;;;;;4.70;1.13;;;;;;;;;;4966419;28;20241;-84
2022/09/18 12:53:15;;;;;;;3.43;0.90;;;;;;;;;;5016531;28;20226;-82
2022/09/18 12:56:02;;;;;;;1.57;0.90;;;;;;;;;;5048260;28;20238;-84
2022/09/18 12:58:42;;;;;;;5.13;1.10;;;;;;;;;;5049249;28;20754;-84
2022/09/18 13:01:12;;;;;;;2.57;1.00;;;;;;;;;;5048551;28;20211;-80
2022/09/18 13:03:41;;;;;;;1.30;1.03;;;;;;;;;;5044489;28;20306;-85
2022/09/18 13:06:11;;;;;;;2.03;0.90;;;;;;;;;;5048719;28;20230;-84
2022/09/18 13:08:42;;;;;;;1.97;1.00;;;;;;;;;;5046251;28;20257;-81
2022/09/18 13:11:13;;;;;;;1.77;0.90;;;;;;;;;;5048485;28;20510;-81
2022/09/18 13:13:45;;;;;;;2.30;1.07;;;;;;;;;;5046347;28;20833;-83
2022/09/18 13:16:16;;;;;;;2.27;0.93;;;;;;;;;;5046635;28;20714;-82
2022/09/18 13:18:48;;;;;;;2.40;1.30;;;;;;;;;;5049079;28;20287;-84
2022/09/18 13:21:19;;;;;;;3.70;1.20;;;;;;;;;;5044142;28;20285;-83
2022/09/18 13:23:46;;;;;;;4.70;1.23;;;;;;;;;;5045887;28;20218;-83
2022/09/18 13:26:15;;;;;;;1.97;1.13;;;;;;;;;;5046452;28;20270;-80
2022/09/18 13:28:43;;;;;;;3.20;1.40;;;;;;;;;;5050050;28;20246;-84
2022/09/18 13:31:30;;;;;;;4.27;1.10;;;;;;;;;;5048317;28;20203;-80
2022/09/18 13:34:00;;;;;;;2.77;1.53;;;;;;;;;;5044028;28;20220;-83
2022/09/18 13:36:29;;;;;;;2.40;1.47;;;;;;;;;;5051671;28;20290;-84
2022/09/18 13:38:57;;;;;;;3.73;1.60;;;;;;;;;;5050704;28;20206;-85
2022/09/18 13:41:24;;;;;;;2.97;1.30;;;;;;;;;;5051370;28;20314;-85
2022/09/18 13:43:53;;;;;;;2.00;1.07;;;;;;;;;;5062943;28;20278;-79
2022/09/18 13:46:34;;;;;;;4.40;1.43;;;;;;;;;;5069922;28;20183;-79
2022/09/18 13:49:12;;;;;;;2.00;0.87;;;;;;;;;;5064873;28;20635;-83
2022/09/18 13:51:40;;;;;;;4.33;0.90;;;;;;;;;;5052553;28;20340;-83
2022/09/18 13:54:22;;;;;;;0.73;0.40;;;;;;;;;;5050389;28;20239;-83
2022/09/18 13:57:09;;;;;;;0.87;0.50;;;;;;;;;;5047076;28;20194;-82
2022/09/18 13:59:45;;;;;;;1.13;0.47;;;;;;;;;;5050305;28;20206;-82
2022/09/18 14:02:23;;;;;;;1.67;0.50;;;;;;;;;;5047466;28;20344;-81
2022/09/18 14:04:57;;;;;;;1.73;0.60;;;;;;;;;;5048904;28;20202;-82
2022/09/18 14:07:48;;;;;;;0.80;0.50;;;;;;;;;;5047066;28;20719;-85
2022/09/18 14:10:22;;;;;;;0.57;0.50;;;;;;;;;;5044088;28;20195;-81
2022/09/18 14:13:03;;;;;;;3.50;0.80;;;;;;;;;;5044749;28;21274;-85
2022/09/18 14:15:31;;;;;;;2.10;0.80;;;;;;;;;;5045730;28;20585;-84
2022/09/18 14:18:05;;;;;;;1.97;1.10;;;;;;;;;;5046694;28;20207;-81
2022/09/18 14:20:34;;;;;;;4.60;1.23;;;;;;;;;;5048405;28;20187;-82
2022/09/18 14:23:16;;;;;;;3.20;0.97;;;;;;;;;;5050519;28;20317;-85
2022/09/18 14:25:45;;;;;;;3.23;1.10;;;;;;;;;;5044249;28;20691;-82
2022/09/18 14:28:13;;;;;;;1.17;0.80;;;;;;;;;;5043725;28;20214;-84
2022/09/18 14:30:40;;;;;;;2.43;1.07;;;;;;;;;;5046640;28;20203;-84
2022/09/18 14:33:18;;;;;;;2.10;1.10;;;;;;;;;;5051251;28;20230;-81
2022/09/18 14:35:50;;;;;;;2.53;0.87;;;;;;;;;;5043731;28;20199;-83
2022/09/18 14:38:18;;;;;;;1.17;0.83;;;;;;;;;;5042759;28;20270;-82
2022/09/18 14:40:49;;;;;;;4.00;1.73;;;;;;;;;;5046377;28;20235;-86
2022/09/18 14:43:17;;;;;;;1.73;0.80;;;;;;;;;;5050613;28;20321;-85
2022/09/18 14:45:45;;;;;;;2.17;1.10;;;;;;;;;;5051493;28;20233;-86
2022/09/18 14:48:20;;;;;;;1.30;0.90;;;;;;;;;;5049573;28;20633;-85
2022/09/18 14:51:00;;;;;;;3.10;1.10;;;;;;;;;;5050172;28;20631;-85
2022/09/18 14:53:28;;;;;;;1.73;1.00;;;;;;;;;;5049044;28;20668;-85
2022/09/18 14:55:56;;;;;;;3.10;1.30;;;;;;;;;;5049123;28;20215;-85
2022/09/18 14:58:25;;;;;;;1.97;0.97;;;;;;;;;;5049519;28;20214;-85
2022/09/18 15:00:54;;;;;;;1.70;1.13;;;;;;;;;;5051643;28;20249;-84
2022/09/18 15:03:22;;;;;;;2.10;0.90;;;;;;;;;;5047142;28;20211;-85